KMKC/MKC METAR and TAF weather

Enter ICAO airport designator
Station Type Date Time Source
KMKC METAR 2022/01/23 11:54 UTC NOAA

KMKC 231154Z 20005KT 10SM CLR 00/M06 A3003 RMK AO2 SLP175 T00001061 10056 21011 53006


Station Type Date Time Source
KMKC Decoded METAR 2022/01/23 11:54 UTC NOAA

KANSAS CITY DOWNTOWN AIRPORT , MO, United States (KMKC) 39-07N 094-36W 227M
Jan 23, 2022 - 06:54 AM EST / 2022.01.23 1154 UTC
Wind: from the SSW (200 degrees) at 6 MPH (5 KT):0
Visibility: 10 mile(s):0
Sky conditions: clear
Temperature: 32.0 F (0.0 C)
Windchill: 26 F (-3 C):1
Dew Point: 21.0 F (-6.1 C)
Relative Humidity: 63%
Pressure (altimeter): 30.03 in. Hg (1016 hPa)
Pressure tendency: 0.02 inches (0.6 hPa) higher than three hours ago
ob: KMKC 231154Z 20005KT 10SM CLR 00/M06 A3003 RMK AO2 SLP175 T00001061 10056 21011 53006
cycle: 12

Station Type Date Time Source
KMKC TAF 2022/01/23 12:36 UTC NOAA

TAF KMKC 231135Z 2312/2412 24010KT P6SM SCT060 BKN150
FM231400 33008KT P6SM BKN035
FM231700 VRB06KT P6SM SCT050
FM240100 18005KT P6SM SCT060

Example: see airport list